Time;durP1;ratioP1;P1;durP2;ratioP2;P2;SDS_P1;SDS_P2;PMS_P1;PMS_P2;Temp;Humidity;BMP_temperature;BMP_pressure;BME280_temperature;BME280_humidity;BME280_pressure;Samples;Min_cycle;Max_cycle;Signal;HPM_P1;HPM_P2
2021/12/13 00:00:41;;;;;;;3.20;2.40;;;;;;;;;;4468282;28;20061;-63
2021/12/13 00:03:10;;;;;;;3.25;2.35;;;;;;;;;;4468212;28;20058;-63
2021/12/13 00:05:39;;;;;;;3.13;2.25;;;;;;;;;;4467835;28;20038;-63
2021/12/13 00:07:58;;;;;;;2.58;2.20;;;;;;;;;;4468629;28;20037;-63
2021/12/13 00:10:18;;;;;;;3.03;2.40;;;;;;;;;;4468070;28;20039;-63
2021/12/13 00:12:34;;;;;;;3.78;2.40;;;;;;;;;;4467926;28;20043;-64
2021/12/13 00:14:50;;;;;;;2.83;2.30;;;;;;;;;;4468193;28;20761;-64
2021/12/13 00:17:15;;;;;;;3.88;2.60;;;;;;;;;;4451699;28;20771;-63
2021/12/13 00:19:36;;;;;;;3.38;2.55;;;;;;;;;;4468304;28;20023;-64
2021/12/13 00:21:55;;;;;;;3.17;2.38;;;;;;;;;;4467590;28;20105;-63
2021/12/13 00:24:14;;;;;;;3.92;2.63;;;;;;;;;;4482705;28;20038;-63
2021/12/13 00:26:39;;;;;;;3.35;2.40;;;;;;;;;;4483541;28;20046;-64
2021/12/13 00:28:49;;;;;;;2.97;2.40;;;;;;;;;;4468857;28;20575;-64
2021/12/13 00:31:12;;;;;;;2.63;2.37;;;;;;;;;;4468129;28;20034;-63
2021/12/13 00:34:15;;;;;;;3.10;2.50;;;;;;;;;;4482180;28;21180;-63
2021/12/13 00:36:32;;;;;;;2.78;2.22;;;;;;;;;;4442126;28;20057;-63
2021/12/13 00:38:55;;;;;;;3.70;2.80;;;;;;;;;;4467919;28;20033;-63
2021/12/13 00:41:14;;;;;;;3.40;2.72;;;;;;;;;;4467422;28;20499;-62
2021/12/13 00:43:27;;;;;;;3.95;2.88;;;;;;;;;;4468154;28;20041;-63
2021/12/13 00:45:47;;;;;;;4.38;3.25;;;;;;;;;;4467906;28;20061;-63
2021/12/13 00:48:01;;;;;;;4.65;3.42;;;;;;;;;;4467461;28;20035;-63
2021/12/13 00:50:16;;;;;;;4.97;3.38;;;;;;;;;;4467349;28;20113;-64
2021/12/13 00:52:30;;;;;;;4.55;3.20;;;;;;;;;;4467901;28;20129;-64
2021/12/13 00:54:41;;;;;;;4.68;3.42;;;;;;;;;;4467068;28;20026;-63
2021/12/13 00:56:58;;;;;;;4.03;3.20;;;;;;;;;;4466354;28;20042;-64
2021/12/13 00:59:11;;;;;;;4.70;3.38;;;;;;;;;;4467554;28;20038;-64
2021/12/13 01:01:22;;;;;;;4.30;3.50;;;;;;;;;;4482584;28;20053;-64
2021/12/13 01:03:38;;;;;;;5.15;3.67;;;;;;;;;;4450285;28;20035;-63
2021/12/13 01:06:00;;;;;;;4.35;3.28;;;;;;;;;;4467840;28;20171;-64
2021/12/13 01:08:35;;;;;;;5.00;3.42;;;;;;;;;;4450070;28;20043;-63
2021/12/13 01:10:55;;;;;;;3.92;3.20;;;;;;;;;;4467050;28;20038;-64
2021/12/13 01:13:24;;;;;;;4.10;3.05;;;;;;;;;;4467229;28;20051;-63
2021/12/13 01:15:50;;;;;;;4.03;3.00;;;;;;;;;;4467564;28;20800;-64
2021/12/13 01:18:32;;;;;;;4.22;3.13;;;;;;;;;;4459722;28;20138;-64
2021/12/13 01:21:16;;;;;;;3.85;2.90;;;;;;;;;;4467589;28;20138;-63
2021/12/13 01:23:45;;;;;;;4.20;2.90;;;;;;;;;;4467032;28;20046;-63
2021/12/13 01:26:13;;;;;;;4.10;3.10;;;;;;;;;;4467971;28;20034;-63
2021/12/13 01:28:37;;;;;;;3.55;2.63;;;;;;;;;;4480944;28;20074;-63
2021/12/13 01:31:00;;;;;;;4.13;3.15;;;;;;;;;;4467414;28;20035;-63
2021/12/13 01:33:12;;;;;;;3.75;2.92;;;;;;;;;;4467438;28;20582;-63
2021/12/13 01:35:26;;;;;;;3.20;2.50;;;;;;;;;;4451337;28;20534;-64
2021/12/13 01:37:37;;;;;;;3.53;2.85;;;;;;;;;;4466438;28;20045;-63
2021/12/13 01:39:50;;;;;;;2.87;2.47;;;;;;;;;;4450161;28;20051;-64
2021/12/13 01:42:10;;;;;;;3.70;2.70;;;;;;;;;;4467191;28;20118;-63
2021/12/13 01:44:25;;;;;;;3.67;2.90;;;;;;;;;;4467623;28;21032;-63
2021/12/13 01:46:43;;;;;;;4.32;2.85;;;;;;;;;;4468131;28;20853;-63
2021/12/13 01:48:54;;;;;;;2.97;2.50;;;;;;;;;;4466971;28;20305;-62
2021/12/13 01:51:08;;;;;;;4.17;2.90;;;;;;;;;;4449663;28;20954;-63
2021/12/13 01:53:33;;;;;;;3.38;2.60;;;;;;;;;;4466584;28;20066;-64
2021/12/13 01:55:47;;;;;;;3.47;2.45;;;;;;;;;;4467680;28;20042;-64
2021/12/13 01:58:20;;;;;;;3.80;2.70;;;;;;;;;;4481849;28;20066;-64
2021/12/13 02:03:03;;;;;;;2.60;2.30;;;;;;;;;;4469548;28;20578;-64
2021/12/13 02:05:20;;;;;;;2.87;2.33;;;;;;;;;;4469920;28;20038;-63
2021/12/13 02:07:58;;;;;;;2.80;2.30;;;;;;;;;;4466621;28;20089;-64
2021/12/13 02:10:34;;;;;;;2.47;2.20;;;;;;;;;;4460615;28;20079;-64
2021/12/13 02:12:46;;;;;;;3.50;2.30;;;;;;;;;;4469688;28;20054;-64
2021/12/13 02:17:26;;;;;;;2.97;2.15;;;;;;;;;;4482863;28;20661;-63
2021/12/13 02:19:48;;;;;;;2.60;2.40;;;;;;;;;;4470587;28;20106;-64
2021/12/13 02:22:08;;;;;;;2.60;2.17;;;;;;;;;;4469874;28;20049;-63
2021/12/13 02:24:20;;;;;;;3.00;2.30;;;;;;;;;;4484395;28;20146;-63
2021/12/13 02:26:32;;;;;;;2.70;2.30;;;;;;;;;;4484907;28;20037;-64
2021/12/13 02:28:43;;;;;;;;;;;;;;;;;;4471035;28;20594;-64
2021/12/13 02:31:06;;;;;;;2.55;2.35;;;;;;;;;;4469416;28;19922;-63
2021/12/13 02:33:20;;;;;;;4.22;2.90;;;;;;;;;;4468971;28;20031;-63
2021/12/13 02:35:33;;;;;;;3.78;2.67;;;;;;;;;;4469686;28;20601;-64
2021/12/13 02:37:44;;;;;;;3.78;3.10;;;;;;;;;;4469508;28;20057;-63
2021/12/13 02:39:58;;;;;;;3.73;2.80;;;;;;;;;;4484747;28;20060;-64
2021/12/13 02:42:13;;;;;;;3.70;2.97;;;;;;;;;;4468962;28;20122;-64
2021/12/13 02:44:38;;;;;;;3.63;3.10;;;;;;;;;;4444852;28;20594;-64
2021/12/13 02:46:50;;;;;;;4.45;3.00;;;;;;;;;;4469663;28;20031;-64
2021/12/13 02:49:05;;;;;;;4.30;3.28;;;;;;;;;;4484262;28;20034;-64
2021/12/13 02:51:17;;;;;;;3.78;2.80;;;;;;;;;;4484304;28;20020;-63
2021/12/13 02:53:41;;;;;;;4.05;3.25;;;;;;;;;;4469523;28;20038;-63
2021/12/13 02:55:52;;;;;;;4.53;3.60;;;;;;;;;;4469882;28;20031;-63
2021/12/13 02:58:07;;;;;;;4.17;3.27;;;;;;;;;;4452133;28;20027;-63
2021/12/13 03:00:31;;;;;;;3.72;3.03;;;;;;;;;;4467177;28;20250;-63
2021/12/13 03:02:46;;;;;;;4.28;3.10;;;;;;;;;;4469630;28;20046;-63
2021/12/13 03:04:58;;;;;;;3.78;3.30;;;;;;;;;;4469809;28;20034;-63
2021/12/13 03:07:10;;;;;;;;;;;;;;;;;;4469772;28;20039;-63
2021/12/13 03:09:23;;;;;;;3.97;3.28;;;;;;;;;;4483889;28;20877;-63
2021/12/13 03:11:35;;;;;;;4.85;3.33;;;;;;;;;;4469600;28;20141;-63
2021/12/13 03:13:45;;;;;;;3.75;3.20;;;;;;;;;;4450306;28;20409;-63
2021/12/13 03:16:04;;;;;;;5.30;3.63;;;;;;;;;;4451708;28;20522;-63
2021/12/13 03:18:25;;;;;;;3.97;3.00;;;;;;;;;;4483911;28;20026;-63
2021/12/13 03:21:04;;;;;;;3.95;3.30;;;;;;;;;;4483671;28;20042;-63
2021/12/13 03:23:17;;;;;;;3.80;3.13;;;;;;;;;;4469290;28;20086;-64
2021/12/13 03:25:40;;;;;;;4.22;3.30;;;;;;;;;;4484499;28;20077;-63
2021/12/13 03:28:11;;;;;;;4.47;3.45;;;;;;;;;;4469323;28;20034;-64
2021/12/13 03:30:22;;;;;;;;;;;;;;;;;;4469215;28;21371;-64
2021/12/13 03:32:45;;;;;;;4.78;3.33;;;;;;;;;;4468856;28;19922;-63
2021/12/13 03:35:11;;;;;;;4.22;3.30;;;;;;;;;;4435519;28;20040;-63
2021/12/13 03:37:23;;;;;;;4.00;3.33;;;;;;;;;;4468829;28;20206;-64
2021/12/13 03:39:38;;;;;;;4.15;3.35;;;;;;;;;;4468313;28;20621;-63
2021/12/13 03:41:51;;;;;;;4.28;3.60;;;;;;;;;;4468819;28;20046;-64
2021/12/13 03:44:07;;;;;;;4.63;3.78;;;;;;;;;;4468816;28;20030;-64
2021/12/13 03:46:20;;;;;;;4.35;3.50;;;;;;;;;;4468577;28;20050;-64
2021/12/13 03:48:31;;;;;;;4.85;3.55;;;;;;;;;;4469654;28;20527;-64
2021/12/13 03:50:46;;;;;;;4.10;3.40;;;;;;;;;;4468364;28;20113;-64
2021/12/13 03:53:00;;;;;;;5.05;3.70;;;;;;;;;;4468750;28;20035;-63
2021/12/13 03:55:14;;;;;;;4.97;3.83;;;;;;;;;;4468563;28;20037;-63
2021/12/13 03:57:25;;;;;;;3.72;3.33;;;;;;;;;;4468598;28;20035;-63
2021/12/13 03:59:38;;;;;;;;;;;;;;;;;;4483643;28;20475;-64
2021/12/13 04:02:02;;;;;;;4.07;3.40;;;;;;;;;;4467777;28;19926;-63
2021/12/13 04:04:44;;;;;;;4.72;3.80;;;;;;;;;;4467995;28;20550;-63
2021/12/13 04:07:07;;;;;;;4.53;3.58;;;;;;;;;;4443264;28;20054;-63
2021/12/13 04:09:20;;;;;;;3.72;3.25;;;;;;;;;;4468237;28;20855;-63
2021/12/13 04:11:30;;;;;;;4.45;3.47;;;;;;;;;;4468322;28;20571;-64
2021/12/13 04:13:54;;;;;;;5.20;4.17;;;;;;;;;;4483663;28;20035;-63
2021/12/13 04:16:35;;;;;;;3.90;3.38;;;;;;;;;;4469054;28;20106;-64
2021/12/13 04:21:11;;;;;;;4.28;3.53;;;;;;;;;;4468253;28;20034;-64
2021/12/13 04:23:22;;;;;;;5.38;4.05;;;;;;;;;;4468039;28;20043;-63
2021/12/13 04:25:37;;;;;;;5.43;4.28;;;;;;;;;;4449683;28;29619;-64
2021/12/13 04:28:06;;;;;;;5.18;3.88;;;;;;;;;;4468001;28;20646;-64
2021/12/13 04:30:20;;;;;;;4.40;3.65;;;;;;;;;;4450796;28;20023;-64
2021/12/13 04:32:34;;;;;;;4.60;3.92;;;;;;;;;;4468526;28;20059;-63
2021/12/13 04:34:45;;;;;;;5.13;3.92;;;;;;;;;;4454204;28;20035;-63
2021/12/13 04:36:57;;;;;;;5.05;3.95;;;;;;;;;;4483544;28;20601;-63
2021/12/13 04:39:27;;;;;;;4.68;3.80;;;;;;;;;;4482824;28;20601;-63
2021/12/13 04:41:53;;;;;;;4.22;3.63;;;;;;;;;;4467369;28;20606;-64
2021/12/13 04:44:10;;;;;;;5.03;3.70;;;;;;;;;;4468167;28;20034;-63
2021/12/13 04:46:21;;;;;;;4.50;3.97;;;;;;;;;;4482926;28;21346;-64
2021/12/13 04:48:34;;;;;;;5.35;4.00;;;;;;;;;;4450117;28;20070;-64
2021/12/13 04:51:05;;;;;;;5.32;4.03;;;;;;;;;;4467213;28;20035;-64
2021/12/13 04:53:46;;;;;;;5.55;4.15;;;;;;;;;;4450020;28;20114;-63
2021/12/13 04:56:00;;;;;;;5.53;4.73;;;;;;;;;;4464631;28;20125;-64
2021/12/13 04:58:12;;;;;;;5.72;4.78;;;;;;;;;;4468171;28;20781;-64
2021/12/13 05:00:26;;;;;;;7.10;5.50;;;;;;;;;;4467718;28;20157;-65
2021/12/13 05:02:42;;;;;;;5.78;4.53;;;;;;;;;;4449411;28;20035;-64
2021/12/13 05:04:54;;;;;;;5.65;4.07;;;;;;;;;;4482200;28;20038;-63
2021/12/13 05:07:06;;;;;;;4.72;4.07;;;;;;;;;;4448844;28;20043;-64
2021/12/13 05:09:19;;;;;;;5.97;4.85;;;;;;;;;;4467782;28;20548;-63
2021/12/13 05:11:33;;;;;;;5.95;5.03;;;;;;;;;;4482578;28;20042;-64
2021/12/13 05:13:54;;;;;;;6.43;4.93;;;;;;;;;;4467152;28;20518;-63
2021/12/13 05:16:09;;;;;;;6.07;4.87;;;;;;;;;;4467643;28;20810;-64
2021/12/13 05:18:24;;;;;;;6.43;5.20;;;;;;;;;;4465787;28;20081;-63
2021/12/13 05:20:39;;;;;;;6.60;4.97;;;;;;;;;;4482771;28;21338;-64
2021/12/13 05:22:55;;;;;;;5.13;4.05;;;;;;;;;;4467291;28;20046;-64
2021/12/13 05:25:06;;;;;;;4.75;3.97;;;;;;;;;;4468054;28;20557;-64
2021/12/13 05:27:30;;;;;;;8.10;6.95;;;;;;;;;;4466785;28;20035;-64
2021/12/13 05:29:46;;;;;;;13.40;12.00;;;;;;;;;;4467379;28;20046;-64
2021/12/13 05:32:12;;;;;;;15.70;14.18;;;;;;;;;;4449010;28;20039;-64
2021/12/13 05:34:33;;;;;;;14.70;13.20;;;;;;;;;;4467710;28;20039;-65
2021/12/13 05:36:54;;;;;;;15.05;13.55;;;;;;;;;;4467800;28;20081;-64
2021/12/13 05:39:16;;;;;;;14.55;13.05;;;;;;;;;;4470202;28;21044;-64
2021/12/13 05:41:28;;;;;;;7.93;6.35;;;;;;;;;;4485849;28;20038;-64
2021/12/13 05:43:43;;;;;;;8.05;6.25;;;;;;;;;;4452514;28;20046;-64
2021/12/13 05:46:02;;;;;;;6.68;5.13;;;;;;;;;;4454655;28;20027;-64
2021/12/13 05:48:20;;;;;;;7.05;5.35;;;;;;;;;;4470582;28;20775;-64
2021/12/13 05:50:40;;;;;;;7.18;5.20;;;;;;;;;;4483565;28;20046;-64
2021/12/13 05:53:00;;;;;;;6.18;4.68;;;;;;;;;;4484599;28;20041;-64
2021/12/13 05:55:14;;;;;;;8.70;5.97;;;;;;;;;;4453716;28;20038;-64
2021/12/13 05:57:28;;;;;;;6.78;5.28;;;;;;;;;;4470710;28;20502;-64
2021/12/13 06:00:01;;;;;;;6.55;5.15;;;;;;;;;;4469823;28;20148;-64
2021/12/13 06:02:47;;;;;;;6.65;5.38;;;;;;;;;;4453732;28;20047;-64
2021/12/13 06:05:18;;;;;;;7.57;5.50;;;;;;;;;;4470086;28;20066;-65
2021/12/13 06:07:33;;;;;;;7.70;5.63;;;;;;;;;;4485214;28;20034;-65
2021/12/13 06:09:54;;;;;;;8.40;6.03;;;;;;;;;;4469745;28;20590;-64
2021/12/13 06:12:07;;;;;;;8.05;6.10;;;;;;;;;;4470028;28;20070;-64
2021/12/13 06:14:20;;;;;;;8.65;6.40;;;;;;;;;;4469771;28;20035;-64
2021/12/13 06:16:44;;;;;;;7.97;6.32;;;;;;;;;;4485689;28;20165;-64
2021/12/13 06:18:57;;;;;;;8.82;6.93;;;;;;;;;;4470177;28;20558;-64
2021/12/13 06:21:38;;;;;;;8.32;6.35;;;;;;;;;;4470410;28;20035;-65
2021/12/13 06:23:48;;;;;;;8.25;6.10;;;;;;;;;;4469892;28;20051;-65
2021/12/13 06:26:04;;;;;;;8.40;6.03;;;;;;;;;;4469615;28;20043;-64
2021/12/13 06:28:21;;;;;;;8.30;6.20;;;;;;;;;;4484925;28;20038;-65
2021/12/13 06:30:38;;;;;;;7.70;5.90;;;;;;;;;;4468607;28;20532;-64
2021/12/13 06:32:57;;;;;;;7.97;6.25;;;;;;;;;;4469357;28;20078;-65
2021/12/13 06:35:40;;;;;;;8.45;6.03;;;;;;;;;;4470511;28;20049;-65
2021/12/13 06:37:50;;;;;;;8.65;6.28;;;;;;;;;;4457309;28;20518;-64
2021/12/13 06:40:31;;;;;;;7.37;5.93;;;;;;;;;;4469656;28;20093;-65
2021/12/13 06:42:41;;;;;;;5.63;4.22;;;;;;;;;;4452100;28;20063;-64
2021/12/13 06:44:52;;;;;;;4.20;3.10;;;;;;;;;;4451972;28;20047;-64
2021/12/13 06:47:22;;;;;;;4.37;3.63;;;;;;;;;;4451687;28;20043;-65
2021/12/13 06:49:34;;;;;;;7.80;5.78;;;;;;;;;;4468312;28;20035;-64
2021/12/13 06:51:49;;;;;;;8.68;6.25;;;;;;;;;;4469827;28;20658;-64
2021/12/13 06:54:04;;;;;;;7.90;5.85;;;;;;;;;;4484585;28;20133;-65
2021/12/13 06:56:24;;;;;;;8.27;6.30;;;;;;;;;;4468964;28;20034;-65
2021/12/13 06:58:35;;;;;;;6.22;5.00;;;;;;;;;;4443933;28;20117;-64
2021/12/13 07:00:48;;;;;;;5.13;4.40;;;;;;;;;;4468528;28;20038;-65
2021/12/13 07:03:05;;;;;;;6.30;5.00;;;;;;;;;;4468720;28;20042;-64
2021/12/13 07:05:32;;;;;;;8.65;6.00;;;;;;;;;;4468774;28;20046;-64
2021/12/13 07:08:00;;;;;;;7.70;5.65;;;;;;;;;;4466397;28;20038;-65
2021/12/13 07:10:16;;;;;;;6.05;4.82;;;;;;;;;;4483456;28;20089;-64
2021/12/13 07:12:29;;;;;;;7.13;5.38;;;;;;;;;;4468479;28;20042;-64
2021/12/13 07:14:40;;;;;;;6.47;4.97;;;;;;;;;;4468588;28;20038;-64
2021/12/13 07:16:52;;;;;;;8.30;5.22;;;;;;;;;;4469395;28;20035;-64
2021/12/13 07:19:29;;;;;;;6.15;4.63;;;;;;;;;;4468550;28;20041;-64
2021/12/13 07:21:46;;;;;;;6.57;4.90;;;;;;;;;;4468198;28;20678;-65
2021/12/13 07:24:06;;;;;;;6.55;4.50;;;;;;;;;;4469661;28;20027;-65
2021/12/13 07:26:29;;;;;;;6.43;4.57;;;;;;;;;;4469723;28;20035;-65
2021/12/13 07:28:40;;;;;;;5.78;4.38;;;;;;;;;;4468916;28;20653;-65
2021/12/13 07:30:51;;;;;;;6.78;4.68;;;;;;;;;;4468254;28;20101;-64
2021/12/13 07:33:07;;;;;;;5.82;4.57;;;;;;;;;;4451114;28;20924;-64
2021/12/13 07:35:23;;;;;;;6.30;4.35;;;;;;;;;;4468779;28;20031;-65
2021/12/13 07:37:46;;;;;;;5.82;4.35;;;;;;;;;;4468669;28;20035;-65
2021/12/13 07:40:24;;;;;;;6.20;4.80;;;;;;;;;;4469026;28;20027;-65
2021/12/13 07:42:34;;;;;;;5.80;4.57;;;;;;;;;;4467786;28;20562;-65
2021/12/13 07:44:47;;;;;;;5.17;4.20;;;;;;;;;;4483431;28;20034;-64
2021/12/13 07:47:01;;;;;;;5.80;4.50;;;;;;;;;;4468982;28;21338;-64
2021/12/13 07:49:12;;;;;;;5.60;4.20;;;;;;;;;;4467638;28;20035;-64
2021/12/13 07:51:35;;;;;;;5.83;4.40;;;;;;;;;;4482808;28;20042;-64
2021/12/13 07:54:01;;;;;;;5.57;4.65;;;;;;;;;;4482660;28;21005;-64
2021/12/13 07:56:20;;;;;;;6.68;4.90;;;;;;;;;;4449838;28;20580;-65
2021/12/13 07:58:35;;;;;;;7.43;4.55;;;;;;;;;;4468267;28;20023;-64
2021/12/13 08:00:46;;;;;;;5.95;5.15;;;;;;;;;;4463591;28;20038;-65
2021/12/13 08:03:04;;;;;;;7.17;5.43;;;;;;;;;;4482994;28;20054;-64
2021/12/13 08:05:14;;;;;;;5.50;4.25;;;;;;;;;;4467752;28;20592;-65
2021/12/13 08:07:26;;;;;;;5.80;4.30;;;;;;;;;;4468097;28;20029;-65
2021/12/13 08:09:48;;;;;;;5.18;3.90;;;;;;;;;;4467234;28;20074;-64
2021/12/13 08:12:13;;;;;;;;;;;;;;;;;;4468092;28;20038;-64
2021/12/13 08:14:28;;;;;;;7.45;5.07;;;;;;;;;;4451311;28;20433;-64
2021/12/13 08:16:45;;;;;;;5.82;4.40;;;;;;;;;;4450826;28;20031;-64
2021/12/13 08:19:05;;;;;;;5.28;4.45;;;;;;;;;;4467319;28;21403;-64
2021/12/13 08:21:26;;;;;;;4.95;4.45;;;;;;;;;;4468120;28;20157;-64
2021/12/13 08:23:46;;;;;;;4.20;3.40;;;;;;;;;;4468566;28;20661;-64
2021/12/13 08:26:00;;;;;;;5.55;4.47;;;;;;;;;;4449952;28;20047;-64
2021/12/13 08:28:15;;;;;;;6.18;4.57;;;;;;;;;;4467687;28;20058;-64
2021/12/13 08:30:29;;;;;;;4.30;3.60;;;;;;;;;;4467402;28;20042;-64
2021/12/13 08:33:28;;;;;;;4.70;3.97;;;;;;;;;;4468607;28;20066;-63
2021/12/13 08:35:50;;;;;;;4.65;3.55;;;;;;;;;;4453960;28;20125;-64
2021/12/13 08:38:01;;;;;;;4.50;3.53;;;;;;;;;;4468339;28;20596;-64
2021/12/13 08:40:25;;;;;;;4.20;3.47;;;;;;;;;;4467109;28;20057;-64
2021/12/13 08:42:40;;;;;;;4.40;3.35;;;;;;;;;;4467338;28;20685;-64
2021/12/13 08:45:08;;;;;;;5.53;3.50;;;;;;;;;;4452519;28;20081;-65
2021/12/13 08:47:26;;;;;;;3.97;3.08;;;;;;;;;;4482441;28;20988;-64
2021/12/13 08:49:41;;;;;;;4.78;3.30;;;;;;;;;;4467426;28;20218;-65
2021/12/13 08:52:13;;;;;;;4.40;3.08;;;;;;;;;;4467277;28;20109;-65
2021/12/13 08:54:40;;;;;;;;;;;;;;;;;;4450672;28;20043;-65
2021/12/13 08:56:51;;;;;;;4.90;3.25;;;;;;;;;;4464924;28;19957;-64
2021/12/13 08:59:10;;;;;;;4.27;3.03;;;;;;;;;;4466459;28;20178;-64
2021/12/13 09:01:21;;;;;;;4.78;3.25;;;;;;;;;;4462051;28;20563;-64
2021/12/13 09:03:44;;;;;;;4.43;2.90;;;;;;;;;;4481487;28;20636;-64
2021/12/13 09:05:59;;;;;;;2.90;2.60;;;;;;;;;;4466259;28;20042;-65
2021/12/13 09:08:13;;;;;;;4.32;3.30;;;;;;;;;;4467147;28;20031;-64
2021/12/13 09:10:48;;;;;;;8.35;5.65;;;;;;;;;;4467819;28;20054;-65
2021/12/13 09:12:59;;;;;;;6.35;4.80;;;;;;;;;;4466690;28;20126;-65
2021/12/13 09:15:23;;;;;;;4.13;3.17;;;;;;;;;;4449392;28;20543;-65
2021/12/13 09:17:41;;;;;;;3.92;2.90;;;;;;;;;;4466937;28;20137;-65
2021/12/13 09:20:04;;;;;;;4.32;3.17;;;;;;;;;;4466083;28;20928;-65
2021/12/13 09:22:28;;;;;;;5.38;2.83;;;;;;;;;;4466728;28;20050;-65
2021/12/13 09:24:50;;;;;;;2.80;2.50;;;;;;;;;;4466510;28;20038;-64
2021/12/13 09:27:33;;;;;;;4.80;3.42;;;;;;;;;;4467240;28;20574;-65
2021/12/13 09:29:55;;;;;;;6.93;6.05;;;;;;;;;;4465941;28;21125;-65
2021/12/13 09:32:12;;;;;;;7.47;6.22;;;;;;;;;;4466926;28;20031;-65
2021/12/13 09:34:22;;;;;;;5.47;4.53;;;;;;;;;;4465470;28;20562;-65
2021/12/13 09:36:36;;;;;;;4.87;3.70;;;;;;;;;;4466763;28;20039;-65
2021/12/13 09:39:04;;;;;;;5.65;3.92;;;;;;;;;;4481343;28;20039;-65
2021/12/13 09:41:21;;;;;;;8.15;4.80;;;;;;;;;;4466249;28;20308;-65
2021/12/13 09:43:50;;;;;;;8.15;5.43;;;;;;;;;;4467238;28;20137;-65
2021/12/13 09:46:00;;;;;;;5.70;4.32;;;;;;;;;;4466159;28;20039;-64
2021/12/13 09:48:22;;;;;;;7.03;4.17;;;;;;;;;;4465148;28;20488;-65
2021/12/13 09:50:33;;;;;;;6.30;4.63;;;;;;;;;;4466818;28;20039;-64
2021/12/13 09:52:51;;;;;;;6.43;4.47;;;;;;;;;;4452509;28;20036;-65
2021/12/13 09:55:16;;;;;;;6.65;4.72;;;;;;;;;;4466220;28;21257;-65
2021/12/13 09:57:51;;;;;;;6.32;4.43;;;;;;;;;;4466664;28;20047;-65
2021/12/13 10:00:14;;;;;;;6.65;4.60;;;;;;;;;;4465906;28;21030;-65
2021/12/13 10:02:31;;;;;;;4.72;3.47;;;;;;;;;;4465424;28;20042;-65
2021/12/13 10:04:43;;;;;;;5.25;3.80;;;;;;;;;;4465390;28;20031;-65
2021/12/13 10:07:07;;;;;;;3.83;3.10;;;;;;;;;;4481018;28;20050;-65
2021/12/13 10:09:22;;;;;;;4.35;3.10;;;;;;;;;;4448099;28;20114;-64
2021/12/13 10:11:47;;;;;;;4.70;3.63;;;;;;;;;;4474394;28;20041;-65
2021/12/13 10:13:58;;;;;;;5.30;3.97;;;;;;;;;;4465837;28;21002;-65
2021/12/13 10:16:13;;;;;;;4.63;3.25;;;;;;;;;;4465477;28;20026;-64
2021/12/13 10:18:28;;;;;;;4.90;3.67;;;;;;;;;;4447779;28;20038;-65
2021/12/13 10:20:45;;;;;;;4.32;3.25;;;;;;;;;;4465103;28;20035;-64
2021/12/13 10:22:56;;;;;;;4.13;3.40;;;;;;;;;;4465548;28;20078;-65
2021/12/13 10:25:11;;;;;;;4.90;2.80;;;;;;;;;;4468836;28;20126;-64
2021/12/13 10:27:21;;;;;;;3.63;2.70;;;;;;;;;;4467875;28;20149;-64
2021/12/13 10:29:33;;;;;;;2.70;2.42;;;;;;;;;;4468142;28;20038;-64
2021/12/13 10:31:45;;;;;;;;;;;;;;;;;;4467301;28;20462;-64
2021/12/13 10:33:58;;;;;;;4.03;3.08;;;;;;;;;;4435437;28;21204;-65
2021/12/13 10:36:09;;;;;;;3.45;2.72;;;;;;;;;;4469114;28;20125;-65
2021/12/13 10:38:31;;;;;;;3.70;2.57;;;;;;;;;;4455050;28;20326;-64
2021/12/13 10:40:52;;;;;;;3.35;2.72;;;;;;;;;;4450111;28;20078;-64
2021/12/13 10:43:09;;;;;;;3.60;2.38;;;;;;;;;;4467754;28;20043;-64
2021/12/13 10:45:24;;;;;;;2.85;2.40;;;;;;;;;;4467968;28;20607;-64
2021/12/13 10:47:39;;;;;;;3.60;2.50;;;;;;;;;;4469463;28;20078;-64
2021/12/13 10:49:52;;;;;;;4.70;2.67;;;;;;;;;;4468481;28;20035;-64
2021/12/13 10:52:15;;;;;;;2.72;2.30;;;;;;;;;;4469170;28;20102;-65
2021/12/13 10:54:32;;;;;;;3.08;2.40;;;;;;;;;;4467589;28;20070;-64
2021/12/13 10:56:47;;;;;;;2.90;2.45;;;;;;;;;;4483602;28;20038;-65
2021/12/13 10:59:03;;;;;;;3.38;2.47;;;;;;;;;;4468649;28;20030;-65
2021/12/13 11:01:20;;;;;;;5.05;2.95;;;;;;;;;;4482845;28;20034;-65
2021/12/13 11:03:33;;;;;;;3.97;2.85;;;;;;;;;;4467503;28;20101;-63
2021/12/13 11:05:45;;;;;;;3.13;2.40;;;;;;;;;;4450148;28;20039;-63
2021/12/13 11:07:57;;;;;;;3.30;2.40;;;;;;;;;;4468712;28;20605;-63
2021/12/13 11:10:11;;;;;;;3.60;2.70;;;;;;;;;;4466975;28;20031;-63
2021/12/13 11:12:30;;;;;;;3.15;2.50;;;;;;;;;;4451160;28;20142;-63
2021/12/13 11:14:42;;;;;;;4.70;2.97;;;;;;;;;;4467315;28;20030;-63
2021/12/13 11:16:57;;;;;;;3.30;2.72;;;;;;;;;;4467448;28;20033;-63
2021/12/13 11:19:14;;;;;;;4.80;2.95;;;;;;;;;;4466810;28;20082;-63
2021/12/13 11:21:29;;;;;;;2.88;2.50;;;;;;;;;;4467016;28;20118;-62
2021/12/13 11:23:40;;;;;;;2.55;2.00;;;;;;;;;;4483837;28;20602;-64
2021/12/13 11:26:01;;;;;;;2.70;2.22;;;;;;;;;;4449941;28;20038;-63
2021/12/13 11:28:14;;;;;;;2.77;2.40;;;;;;;;;;4468315;28;20034;-63
2021/12/13 11:30:28;;;;;;;3.17;2.58;;;;;;;;;;4466841;28;20570;-63
2021/12/13 11:32:57;;;;;;;3.97;2.63;;;;;;;;;;4467573;28;20035;-63
2021/12/13 11:35:08;;;;;;;3.42;2.53;;;;;;;;;;4466867;28;20085;-63
2021/12/13 11:37:56;;;;;;;3.10;2.45;;;;;;;;;;4467020;28;20605;-63
2021/12/13 11:40:44;;;;;;;2.50;2.30;;;;;;;;;;4466811;28;20042;-63
2021/12/13 11:43:13;;;;;;;3.47;2.22;;;;;;;;;;4466766;28;20042;-64
2021/12/13 11:45:36;;;;;;;2.53;2.15;;;;;;;;;;4467416;28;20098;-63
2021/12/13 11:48:16;;;;;;;3.50;2.40;;;;;;;;;;4482062;28;20893;-63
2021/12/13 11:51:05;;;;;;;3.53;2.63;;;;;;;;;;4483909;28;20053;-63
2021/12/13 11:53:49;;;;;;;3.15;2.70;;;;;;;;;;4468306;28;20073;-63
2021/12/13 11:56:22;;;;;;;4.10;3.05;;;;;;;;;;4467517;28;20149;-63
2021/12/13 11:59:07;;;;;;;3.10;2.40;;;;;;;;;;4467284;28;20625;-63
2021/12/13 12:01:30;;;;;;;3.25;2.40;;;;;;;;;;4466943;28;20062;-63
2021/12/13 12:04:05;;;;;;;3.20;2.72;;;;;;;;;;4466779;28;20120;-63
2021/12/13 12:06:31;;;;;;;2.70;2.03;;;;;;;;;;4466818;28;20137;-63
2021/12/13 12:09:04;;;;;;;2.38;1.70;;;;;;;;;;4481967;28;20050;-63
2021/12/13 12:11:52;;;;;;;2.30;1.95;;;;;;;;;;4466672;28;20062;-64
2021/12/13 12:14:08;;;;;;;2.40;2.10;;;;;;;;;;4466649;28;20038;-63
2021/12/13 12:16:24;;;;;;;2.90;2.15;;;;;;;;;;4450092;28;20262;-63
2021/12/13 12:18:38;;;;;;;2.22;1.70;;;;;;;;;;4448270;28;20129;-63
2021/12/13 12:20:53;;;;;;;3.60;2.70;;;;;;;;;;4467539;28;20121;-63
2021/12/13 12:23:07;;;;;;;2.38;2.17;;;;;;;;;;4432982;28;20138;-63
2021/12/13 12:25:21;;;;;;;3.47;2.53;;;;;;;;;;4466671;28;20050;-63
2021/12/13 12:27:35;;;;;;;3.15;2.10;;;;;;;;;;4466714;28;20027;-63
2021/12/13 12:29:53;;;;;;;3.28;2.65;;;;;;;;;;4481215;28;21399;-63
2021/12/13 12:32:11;;;;;;;2.95;2.63;;;;;;;;;;4466395;28;20049;-63
2021/12/13 12:34:22;;;;;;;2.38;1.95;;;;;;;;;;4466678;28;20228;-63
2021/12/13 12:36:41;;;;;;;2.00;1.80;;;;;;;;;;4465847;28;20238;-63
2021/12/13 12:39:06;;;;;;;4.53;3.22;;;;;;;;;;4481036;28;20874;-63
2021/12/13 12:41:39;;;;;;;6.72;5.18;;;;;;;;;;4466554;28;20038;-63
2021/12/13 12:43:53;;;;;;;5.60;4.97;;;;;;;;;;4467166;28;20124;-63
2021/12/13 12:46:08;;;;;;;3.95;2.40;;;;;;;;;;4467219;28;20562;-63
2021/12/13 12:48:34;;;;;;;2.40;1.80;;;;;;;;;;4448774;28;20062;-63
2021/12/13 12:50:54;;;;;;;2.67;2.00;;;;;;;;;;4468008;28;20058;-63
2021/12/13 12:53:09;;;;;;;2.63;2.25;;;;;;;;;;4482277;28;20044;-63
2021/12/13 12:55:24;;;;;;;2.00;1.83;;;;;;;;;;4467211;28;20065;-63
2021/12/13 12:57:34;;;;;;;2.45;2.00;;;;;;;;;;4467867;28;20062;-63
2021/12/13 12:59:45;;;;;;;2.47;1.83;;;;;;;;;;4466799;28;20051;-63
2021/12/13 13:02:00;;;;;;;2.10;1.70;;;;;;;;;;4467534;28;20284;-63
2021/12/13 13:04:23;;;;;;;2.03;1.67;;;;;;;;;;4467006;28;20037;-63
2021/12/13 13:06:34;;;;;;;2.78;1.77;;;;;;;;;;4466784;28;20034;-62
2021/12/13 13:08:47;;;;;;;2.57;2.10;;;;;;;;;;4482646;28;20046;-63
2021/12/13 13:13:38;;;;;;;2.15;1.95;;;;;;;;;;4451588;28;20037;-63
2021/12/13 13:15:51;;;;;;;2.75;2.30;;;;;;;;;;4435316;28;20032;-63
2021/12/13 13:18:08;;;;;;;3.10;2.47;;;;;;;;;;4448545;28;20123;-63
2021/12/13 13:20:24;;;;;;;8.07;5.68;;;;;;;;;;4467315;28;20042;-63
2021/12/13 13:22:37;;;;;;;8.18;5.70;;;;;;;;;;4448908;28;20031;-63
2021/12/13 13:24:51;;;;;;;10.95;6.97;;;;;;;;;;4465970;28;20034;-63
2021/12/13 13:27:02;;;;;;;7.60;5.15;;;;;;;;;;4467303;28;20652;-63
2021/12/13 13:29:16;;;;;;;5.00;3.87;;;;;;;;;;4467043;28;20088;-63
2021/12/13 13:31:57;;;;;;;3.08;2.30;;;;;;;;;;4482176;28;20836;-63
2021/12/13 13:34:13;;;;;;;3.33;2.88;;;;;;;;;;4467392;28;20049;-63
2021/12/13 13:36:46;;;;;;;3.95;2.67;;;;;;;;;;4466946;28;20035;-63
2021/12/13 13:39:13;;;;;;;3.45;2.88;;;;;;;;;;4481949;28;20039;-63
2021/12/13 13:41:24;;;;;;;3.08;2.60;;;;;;;;;;4467011;28;20567;-63
2021/12/13 13:43:39;;;;;;;4.77;3.57;;;;;;;;;;4482171;28;20042;-63
2021/12/13 13:45:52;;;;;;;5.15;3.90;;;;;;;;;;4465168;28;20094;-63
2021/12/13 13:48:15;;;;;;;5.72;3.30;;;;;;;;;;4446352;28;20047;-63
2021/12/13 13:50:33;;;;;;;4.50;2.72;;;;;;;;;;4466729;28;20514;-63
2021/12/13 13:52:45;;;;;;;2.30;2.08;;;;;;;;;;4466447;28;20098;-63
2021/12/13 13:54:59;;;;;;;3.92;2.50;;;;;;;;;;4481538;28;20035;-63
2021/12/13 13:57:15;;;;;;;4.47;2.40;;;;;;;;;;4466656;28;20043;-63
2021/12/13 13:59:26;;;;;;;3.25;2.30;;;;;;;;;;4444762;28;20046;-63
2021/12/13 14:02:07;;;;;;;3.60;2.30;;;;;;;;;;4484502;28;20038;-63
2021/12/13 14:04:32;;;;;;;3.10;2.28;;;;;;;;;;4469536;28;20039;-62
2021/12/13 14:06:45;;;;;;;2.90;2.28;;;;;;;;;;4470802;28;20046;-63